Time;durP1;ratioP1;P1;durP2;ratioP2;P2;SDS_P1;SDS_P2;PMS_P1;PMS_P2;Temp;Humidity;BMP_temperature;BMP_pressure;BME280_temperature;BME280_humidity;BME280_pressure;Samples;Min_cycle;Max_cycle;Signal;HPM_P1;HPM_P2
2023/03/11 00:00:28;;;;;;;9.10;2.60;;;0.50;99.90;;;;;;5038232;28;20508;-66
2023/03/11 00:02:55;;;;;;;5.50;1.58;;;0.30;99.90;;;;;;5042581;28;20056;-66
2023/03/11 00:05:29;;;;;;;8.63;1.60;;;0.50;99.90;;;;;;5033918;28;20032;-66
2023/03/11 00:07:55;;;;;;;8.13;1.52;;;0.30;99.90;;;;;;5032817;28;20041;-66
2023/03/11 00:10:24;;;;;;;8.13;2.38;;;0.60;99.90;;;;;;5034461;28;20106;-67
2023/03/11 00:12:50;;;;;;;6.53;2.00;;;0.50;99.90;;;;;;5038446;28;20049;-66
2023/03/11 00:15:16;;;;;;;6.15;1.90;;;0.50;99.90;;;;;;5039848;28;20042;-66
2023/03/11 00:17:42;;;;;;;7.53;2.22;;;0.60;99.90;;;;;;5035371;28;20495;-66
2023/03/11 00:20:15;;;;;;;7.15;2.03;;;0.50;99.90;;;;;;5040087;28;20049;-66
2023/03/11 00:22:40;;;;;;;9.27;2.00;;;0.50;99.90;;;;;;5034233;28;20488;-66
2023/03/11 00:25:06;;;;;;;7.00;2.00;;;0.40;99.90;;;;;;5041792;28;20039;-66
2023/03/11 00:27:32;;;;;;;9.02;2.60;;;0.40;99.90;;;;;;5038716;28;20044;-66
2023/03/11 00:29:57;;;;;;;8.98;1.90;;;0.40;99.90;;;;;;5038619;28;20043;-65
2023/03/11 00:32:23;;;;;;;10.23;1.77;;;0.50;99.90;;;;;;5041890;28;20132;-66
2023/03/11 00:34:48;;;;;;;4.70;1.80;;;0.50;99.90;;;;;;5044941;28;20133;-66
2023/03/11 00:37:14;;;;;;;8.48;1.50;;;0.60;99.90;;;;;;5045040;28;20049;-65
2023/03/11 00:39:39;;;;;;;6.70;1.63;;;0.70;99.90;;;;;;5040693;28;20136;-65
2023/03/11 00:42:06;;;;;;;7.82;1.35;;;0.50;99.90;;;;;;5048797;28;20033;-66
2023/03/11 00:44:32;;;;;;;7.53;1.77;;;0.70;99.90;;;;;;5043467;28;20411;-65
2023/03/11 00:46:57;;;;;;;11.07;2.13;;;0.70;99.90;;;;;;5043889;28;20038;-66
2023/03/11 00:49:23;;;;;;;5.10;1.23;;;0.50;99.90;;;;;;5043665;28;20042;-66
2023/03/11 00:51:48;;;;;;;7.65;1.40;;;0.60;99.90;;;;;;5047181;28;20049;-65
2023/03/11 00:54:14;;;;;;;3.22;0.90;;;0.60;99.90;;;;;;5051456;28;20041;-65
2023/03/11 00:56:40;;;;;;;5.47;1.10;;;0.40;99.90;;;;;;5043731;28;20086;-66
2023/03/11 00:59:06;;;;;;;8.75;1.65;;;0.50;99.90;;;;;;5047601;28;20047;-65
2023/03/11 01:01:32;;;;;;;4.05;1.23;;;0.50;99.90;;;;;;5039602;28;20340;-65
2023/03/11 01:03:57;;;;;;;6.18;1.40;;;0.40;99.90;;;;;;5046517;28;20072;-65
2023/03/11 01:06:23;;;;;;;7.55;1.65;;;0.40;99.90;;;;;;5046197;28;20589;-64
2023/03/11 01:08:49;;;;;;;7.55;1.40;;;0.40;99.90;;;;;;5048837;28;20263;-64
2023/03/11 01:11:15;;;;;;;6.75;1.33;;;0.40;99.90;;;;;;5037817;28;20973;-64
2023/03/11 01:13:40;;;;;;;5.75;1.23;;;0.40;99.90;;;;;;5048491;28;20090;-65
2023/03/11 01:16:07;;;;;;;6.90;1.63;;;0.50;99.90;;;;;;5037104;28;20041;-65
2023/03/11 01:18:33;;;;;;;4.57;1.00;;;0.40;99.90;;;;;;5045660;28;20560;-64
2023/03/11 01:20:59;;;;;;;4.72;1.40;;;0.30;99.90;;;;;;5044606;28;20124;-65
2023/03/11 01:23:25;;;;;;;8.25;1.38;;;0.20;99.90;;;;;;5045432;28;20041;-64
2023/03/11 01:25:51;;;;;;;9.27;1.40;;;0.10;99.90;;;;;;5044397;28;20056;-64
2023/03/11 01:28:16;;;;;;;9.25;1.80;;;0.10;99.90;;;;;;5048541;28;20033;-64
2023/03/11 01:30:42;;;;;;;9.45;1.40;;;0.10;99.90;;;;;;5047208;28;20439;-64
2023/03/11 01:33:14;;;;;;;4.78;1.42;;;0.10;99.90;;;;;;5041055;28;20064;-64
2023/03/11 01:35:41;;;;;;;4.43;1.92;;;0.10;99.90;;;;;;5041760;28;20490;-64
2023/03/11 01:38:06;;;;;;;10.40;1.60;;;0.10;99.90;;;;;;5047391;28;20049;-64
2023/03/11 01:40:44;;;;;;;7.03;1.60;;;0.00;99.90;;;;;;5037160;28;20044;-64
2023/03/11 01:43:35;;;;;;;6.07;1.70;;;0.00;99.90;;;;;;5046470;28;20037;-64
2023/03/11 01:46:03;;;;;;;6.10;1.50;;;0.00;99.90;;;;;;5048590;28;20112;-64
2023/03/11 01:48:29;;;;;;;7.50;1.73;;;0.00;99.90;;;;;;5041225;28;20044;-64
2023/03/11 01:50:55;;;;;;;9.15;1.50;;;-0.20;99.90;;;;;;5047966;28;20387;-64
2023/03/11 01:53:23;;;;;;;6.03;1.48;;;-0.10;99.90;;;;;;5033583;28;20056;-64
2023/03/11 01:55:48;;;;;;;4.25;1.40;;;-0.20;99.90;;;;;;5038380;28;20404;-64
2023/03/11 01:58:18;;;;;;;6.95;1.52;;;0.00;99.90;;;;;;5037596;28;20075;-63
2023/03/11 02:00:45;;;;;;;3.70;1.30;;;-0.10;99.90;;;;;;5031668;28;20037;-64
2023/03/11 02:03:16;;;;;;;6.50;1.50;;;-0.10;99.90;;;;;;5033162;28;20106;-63
2023/03/11 02:05:43;;;;;;;6.07;1.30;;;-0.10;99.90;;;;;;5040316;28;20056;-63
2023/03/11 02:08:09;;;;;;;7.03;1.45;;;-0.20;99.90;;;;;;5031039;28;20459;-64
2023/03/11 02:10:37;;;;;;;10.00;2.30;;;-0.10;99.90;;;;;;5025757;28;20132;-63
2023/03/11 02:13:03;;;;;;;5.55;1.67;;;-0.20;99.90;;;;;;5043397;28;20058;-62
2023/03/11 02:15:29;;;;;;;8.20;1.77;;;-0.20;99.90;;;;;;5036067;28;20424;-63
2023/03/11 02:17:55;;;;;;;12.52;2.30;;;-0.30;99.90;;;;;;5040329;28;20067;-63
2023/03/11 02:20:38;;;;;;;7.47;1.95;;;-0.30;99.90;;;;;;5039265;28;20480;-63
2023/03/11 02:23:03;;;;;;;5.93;1.70;;;-0.40;99.90;;;;;;5032416;28;20586;-63
2023/03/11 02:26:07;;;;;;;9.93;2.00;;;-0.40;99.90;;;;;;5033610;28;20043;-64
2023/03/11 02:28:35;;;;;;;8.68;1.90;;;-0.40;99.90;;;;;;5034422;28;20053;-63
2023/03/11 02:31:01;;;;;;;7.57;1.50;;;-0.40;99.90;;;;;;5031495;28;20033;-62
2023/03/11 02:33:31;;;;;;;4.82;1.10;;;-0.30;99.90;;;;;;5037541;28;20049;-63
2023/03/11 02:35:56;;;;;;;6.35;1.45;;;-0.30;99.90;;;;;;5033162;28;20041;-63
2023/03/11 02:38:22;;;;;;;8.50;1.73;;;-0.20;99.90;;;;;;5033751;28;20047;-63
2023/03/11 02:40:57;;;;;;;7.22;1.40;;;-0.30;99.90;;;;;;5040161;28;20052;-63
2023/03/11 02:43:38;;;;;;;5.65;1.50;;;-0.20;99.90;;;;;;5034050;28;20610;-63
2023/03/11 02:46:08;;;;;;;5.65;1.20;;;-0.20;99.90;;;;;;5033881;28;20033;-63
2023/03/11 02:48:35;;;;;;;8.50;1.40;;;-0.20;99.90;;;;;;5039337;28;20041;-63
2023/03/11 02:51:01;;;;;;;6.18;1.23;;;-0.20;99.90;;;;;;5034737;28;20046;-63
2023/03/11 02:53:32;;;;;;;3.65;1.10;;;-0.20;99.90;;;;;;5033289;28;20049;-63
2023/03/11 02:55:58;;;;;;;4.00;1.33;;;-0.20;99.90;;;;;;5034676;28;20177;-63
2023/03/11 02:58:23;;;;;;;6.05;1.40;;;-0.20;99.90;;;;;;5038763;28;20135;-63
2023/03/11 03:00:49;;;;;;;6.30;1.55;;;-0.30;99.90;;;;;;5039701;28;20295;-63
2023/03/11 03:03:14;;;;;;;4.18;1.50;;;-0.30;99.90;;;;;;5040782;28;20033;-63
2023/03/11 03:05:40;;;;;;;2.60;1.20;;;-0.40;99.90;;;;;;5041211;28;20053;-63
2023/03/11 03:08:06;;;;;;;2.95;1.20;;;-0.40;99.90;;;;;;5028128;28;20119;-63
2023/03/11 03:10:31;;;;;;;3.53;1.20;;;-0.50;99.90;;;;;;5038906;28;20128;-63
2023/03/11 03:12:57;;;;;;;6.75;1.60;;;-0.50;99.90;;;;;;5038745;28;20049;-63
2023/03/11 03:15:22;;;;;;;3.17;1.02;;;-0.60;99.90;;;;;;5047314;28;20073;-63
2023/03/11 03:17:50;;;;;;;5.82;1.75;;;-0.70;99.90;;;;;;5056028;28;20040;-63
2023/03/11 03:20:16;;;;;;;6.65;1.30;;;-0.70;99.90;;;;;;5044763;28;20044;-63
2023/03/11 03:22:43;;;;;;;7.05;1.15;;;-0.70;99.90;;;;;;5053806;28;20040;-63
2023/03/11 03:25:10;;;;;;;6.30;1.25;;;-0.70;99.90;;;;;;5044163;28;20396;-62
2023/03/11 03:27:36;;;;;;;5.95;1.20;;;-0.80;99.90;;;;;;5039133;28;20047;-62
2023/03/11 03:30:03;;;;;;;4.75;1.20;;;-0.80;99.90;;;;;;5038180;28;20045;-63
2023/03/11 03:32:29;;;;;;;5.38;1.15;;;-0.90;99.90;;;;;;5036797;28;20045;-62
2023/03/11 03:34:58;;;;;;;6.43;1.23;;;-1.00;99.90;;;;;;5045575;28;20043;-62
2023/03/11 03:37:25;;;;;;;4.45;1.10;;;-1.00;99.90;;;;;;5032276;28;20044;-62
2023/03/11 03:39:51;;;;;;;7.07;1.00;;;-1.00;99.90;;;;;;5043401;28;20052;-63
2023/03/11 03:42:16;;;;;;;2.75;1.73;;;-1.10;99.90;;;;;;5042854;28;20041;-63
2023/03/11 03:44:42;;;;;;;4.18;1.20;;;-1.00;99.90;;;;;;5041969;28;20043;-63
2023/03/11 03:47:07;;;;;;;6.20;1.35;;;-1.00;99.90;;;;;;5038950;28;20094;-63
2023/03/11 03:49:33;;;;;;;4.65;1.50;;;-1.00;99.90;;;;;;5045064;28;20045;-62
2023/03/11 03:51:58;;;;;;;5.53;1.60;;;-1.00;99.90;;;;;;5031981;28;20072;-62
2023/03/11 03:54:24;;;;;;;3.80;1.38;;;-1.00;99.90;;;;;;5044468;28;20127;-63
2023/03/11 03:56:49;;;;;;;12.23;1.75;;;-0.90;99.90;;;;;;5039254;28;20068;-62
2023/03/11 03:59:15;;;;;;;6.38;1.30;;;-0.90;99.90;;;;;;5032719;28;20125;-63
2023/03/11 04:01:40;;;;;;;4.47;1.30;;;-0.90;99.90;;;;;;5045063;28;20073;-63
2023/03/11 04:04:06;;;;;;;6.20;1.83;;;-0.80;99.90;;;;;;5044507;28;20427;-62
2023/03/11 04:06:31;;;;;;;4.55;1.60;;;-0.90;99.90;;;;;;5034593;28;20116;-62
2023/03/11 04:08:57;;;;;;;6.18;1.20;;;-0.90;99.90;;;;;;5043324;28;20375;-62
2023/03/11 04:11:22;;;;;;;3.42;1.02;;;-0.90;99.90;;;;;;5034703;28;20397;-62
2023/03/11 04:13:48;;;;;;;4.95;1.15;;;-0.80;99.90;;;;;;5036364;28;20554;-62
2023/03/11 04:16:17;;;;;;;3.28;1.10;;;-0.80;99.90;;;;;;5043100;28;20956;-62
2023/03/11 04:18:42;;;;;;;4.57;1.30;;;-0.90;99.90;;;;;;5033187;28;20534;-62
2023/03/11 04:21:08;;;;;;;3.70;1.40;;;-0.80;99.90;;;;;;5032321;28;20049;-62
2023/03/11 04:23:34;;;;;;;5.57;1.40;;;-1.00;99.90;;;;;;5042165;28;20044;-62
2023/03/11 04:26:00;;;;;;;5.43;1.30;;;-1.00;99.90;;;;;;5042238;28;20072;-63
2023/03/11 04:28:26;;;;;;;5.00;1.30;;;-1.10;99.90;;;;;;5043649;28;20076;-62
2023/03/11 04:30:51;;;;;;;4.32;1.10;;;-1.10;99.90;;;;;;5039243;28;20049;-62
2023/03/11 04:33:17;;;;;;;4.45;1.42;;;-1.10;99.90;;;;;;5035598;28;20051;-61
2023/03/11 04:35:43;;;;;;;5.30;1.33;;;-1.10;99.90;;;;;;5045590;28;20041;-62
2023/03/11 04:38:08;;;;;;;3.55;1.17;;;-1.20;99.90;;;;;;5037541;28;20076;-62
2023/03/11 04:40:36;;;;;;;4.13;1.17;;;-1.10;99.90;;;;;;5038345;28;20041;-62
2023/03/11 04:43:02;;;;;;;6.10;1.20;;;-1.10;99.90;;;;;;5042282;28;20042;-63
2023/03/11 04:45:28;;;;;;;4.80;1.35;;;-1.10;99.90;;;;;;5026375;28;20037;-63
2023/03/11 04:47:53;;;;;;;3.55;1.10;;;-1.20;99.90;;;;;;5043585;28;20040;-63
2023/03/11 04:50:19;;;;;;;3.00;1.33;;;-1.20;99.90;;;;;;5043569;28;20395;-63
2023/03/11 04:52:45;;;;;;;5.15;1.52;;;-1.20;99.90;;;;;;5032878;28;20487;-62
2023/03/11 04:55:12;;;;;;;9.27;1.35;;;-1.30;99.90;;;;;;5041101;28;20084;-63
2023/03/11 04:57:39;;;;;;;3.38;1.10;;;-1.40;99.90;;;;;;5040309;28;20071;-63
2023/03/11 05:00:08;;;;;;;4.18;1.23;;;-1.40;99.90;;;;;;5040015;28;20053;-63
2023/03/11 05:02:34;;;;;;;3.78;1.15;;;-1.40;99.90;;;;;;5040732;28;20063;-62
2023/03/11 05:05:00;;;;;;;6.00;1.23;;;-1.50;99.90;;;;;;5038083;28;20045;-63
2023/03/11 05:07:26;;;;;;;5.50;1.38;;;-1.50;99.90;;;;;;5044283;28;20041;-63
2023/03/11 05:09:51;;;;;;;6.43;1.25;;;-1.50;99.90;;;;;;5034211;28;20041;-63
2023/03/11 05:12:17;;;;;;;3.58;1.30;;;-1.60;99.90;;;;;;5037601;28;20488;-63
2023/03/11 05:14:42;;;;;;;6.80;1.27;;;-1.70;99.90;;;;;;5035588;28;20041;-62
2023/03/11 05:17:10;;;;;;;3.53;1.27;;;-1.70;99.90;;;;;;5044659;28;20081;-63
2023/03/11 05:19:36;;;;;;;3.63;1.77;;;-1.80;99.90;;;;;;5046006;28;20102;-62
2023/03/11 05:22:03;;;;;;;3.55;1.20;;;-1.90;99.90;;;;;;5044586;28;20072;-63
2023/03/11 05:24:29;;;;;;;5.03;1.30;;;-1.90;99.90;;;;;;5037634;28;20492;-63
2023/03/11 05:26:55;;;;;;;4.25;1.40;;;-1.90;99.90;;;;;;5041666;28;20052;-63
2023/03/11 05:29:20;;;;;;;9.00;1.70;;;-2.00;99.90;;;;;;5040254;28;20037;-62
2023/03/11 05:31:46;;;;;;;2.17;1.20;;;-2.10;99.90;;;;;;5033033;28;20045;-63
2023/03/11 05:34:13;;;;;;;3.60;1.45;;;-2.10;99.90;;;;;;5046974;28;20037;-63
2023/03/11 05:36:38;;;;;;;7.97;1.50;;;-2.10;99.90;;;;;;5044838;28;20044;-63
2023/03/11 05:39:04;;;;;;;6.60;1.40;;;-2.10;99.90;;;;;;5035065;28;20226;-62
2023/03/11 05:41:30;;;;;;;4.15;1.35;;;-2.10;99.90;;;;;;5056226;28;20099;-63
2023/03/11 05:43:55;;;;;;;4.57;1.42;;;-2.10;99.90;;;;;;5042726;28;20067;-63
2023/03/11 05:46:21;;;;;;;4.20;1.45;;;-2.20;99.90;;;;;;5042930;28;20041;-63
2023/03/11 05:48:46;;;;;;;2.75;1.13;;;-2.10;99.90;;;;;;5046108;28;20033;-63
2023/03/11 05:51:12;;;;;;;4.25;1.45;;;-2.20;99.90;;;;;;5042517;28;20400;-63
2023/03/11 05:53:41;;;;;;;7.13;1.45;;;-2.20;99.90;;;;;;5042572;28;20492;-63
2023/03/11 05:56:06;;;;;;;4.75;1.60;;;-2.20;99.90;;;;;;5040630;28;20087;-63
2023/03/11 05:58:32;;;;;;;7.47;1.60;;;-2.20;99.90;;;;;;5038129;28;20045;-63
2023/03/11 06:00:59;;;;;;;3.00;1.83;;;-2.20;99.90;;;;;;5035389;28;20053;-63
2023/03/11 06:03:25;;;;;;;6.03;1.58;;;-2.20;99.90;;;;;;5034919;28;20047;-63
2023/03/11 06:05:51;;;;;;;6.40;1.50;;;-2.20;99.90;;;;;;5044071;28;20392;-63
2023/03/11 06:08:18;;;;;;;5.00;1.60;;;-2.20;99.90;;;;;;5035279;28;20033;-63
2023/03/11 06:10:44;;;;;;;6.07;1.60;;;-2.20;99.90;;;;;;5043621;28;20134;-63
2023/03/11 06:13:09;;;;;;;6.63;1.70;;;-2.30;99.90;;;;;;5031682;28;20077;-63
2023/03/11 06:15:37;;;;;;;3.53;1.15;;;-2.30;99.90;;;;;;5044209;28;20037;-63
2023/03/11 06:18:03;;;;;;;3.40;1.38;;;-2.30;99.90;;;;;;5048636;28;20045;-63
2023/03/11 06:20:30;;;;;;;2.85;1.10;;;-2.30;99.90;;;;;;5036061;28;20041;-63
2023/03/11 06:22:56;;;;;;;5.05;1.30;;;-2.30;99.90;;;;;;5043168;28;20072;-63
2023/03/11 06:25:21;;;;;;;3.05;1.50;;;-2.30;99.90;;;;;;5014134;28;20069;-63
2023/03/11 06:27:52;;;;;;;7.45;1.48;;;-2.30;99.90;;;;;;5041735;28;20035;-63
2023/03/11 06:30:18;;;;;;;5.53;1.48;;;-2.30;99.90;;;;;;5044986;28;20052;-63
2023/03/11 06:32:45;;;;;;;5.07;1.35;;;-2.20;99.90;;;;;;5039283;28;20048;-63
2023/03/11 06:35:11;;;;;;;2.13;1.02;;;-2.20;99.90;;;;;;5034301;28;20040;-63
2023/03/11 06:37:37;;;;;;;6.32;1.40;;;-2.20;99.90;;;;;;5025492;28;20128;-63
2023/03/11 06:40:04;;;;;;;4.30;1.17;;;-2.20;99.90;;;;;;5040557;28;20124;-63
2023/03/11 06:42:30;;;;;;;5.22;1.17;;;-2.10;99.90;;;;;;5042955;28;20044;-63
2023/03/11 06:44:55;;;;;;;5.60;1.48;;;-2.00;99.90;;;;;;5045242;28;20387;-63
2023/03/11 06:47:21;;;;;;;7.35;1.42;;;-2.00;99.90;;;;;;5041305;28;20029;-63
2023/03/11 06:49:46;;;;;;;2.47;1.13;;;-2.00;99.90;;;;;;5032282;28;20314;-63
2023/03/11 06:52:12;;;;;;;3.10;1.25;;;-1.90;99.90;;;;;;5039229;28;20455;-63
2023/03/11 06:54:38;;;;;;;2.22;1.08;;;-2.00;99.90;;;;;;5042347;28;20041;-63
2023/03/11 06:57:06;;;;;;;5.07;1.10;;;-1.80;99.90;;;;;;5031045;28;20609;-63
2023/03/11 06:59:32;;;;;;;3.47;1.60;;;-1.80;99.90;;;;;;5057593;28;20049;-63
2023/03/11 07:01:58;;;;;;;4.70;1.40;;;-1.80;99.90;;;;;;5036428;28;20407;-63
2023/03/11 07:04:23;;;;;;;3.47;1.10;;;-1.80;99.90;;;;;;5036777;28;20053;-63
2023/03/11 07:06:49;;;;;;;4.70;1.27;;;-1.80;99.90;;;;;;5041633;28;20041;-63
2023/03/11 07:09:14;;;;;;;3.47;1.10;;;-1.70;99.90;;;;;;5055126;28;20039;-63
2023/03/11 07:11:40;;;;;;;1.40;1.02;;;-1.70;99.90;;;;;;5042054;28;20029;-63
2023/03/11 07:14:06;;;;;;;2.80;1.38;;;-1.60;99.90;;;;;;5038398;28;20044;-63
2023/03/11 07:16:31;;;;;;;2.60;1.17;;;-1.70;99.90;;;;;;5039029;28;20099;-64
2023/03/11 07:19:01;;;;;;;3.53;1.23;;;-1.60;99.90;;;;;;5038237;28;20033;-63
2023/03/11 07:21:28;;;;;;;4.93;1.27;;;-1.60;99.90;;;;;;5033426;28;20052;-63
2023/03/11 07:23:57;;;;;;;4.38;1.30;;;-1.50;99.90;;;;;;5034133;28;20037;-63
2023/03/11 07:26:23;;;;;;;4.32;1.15;;;-1.40;99.90;;;;;;5032347;28;20033;-63
2023/03/11 07:28:49;;;;;;;4.47;1.35;;;-1.40;99.90;;;;;;5036670;28;20063;-63
2023/03/11 07:31:18;;;;;;;6.13;1.23;;;-1.30;99.90;;;;;;5036626;28;20045;-64
2023/03/11 07:33:44;;;;;;;5.53;1.25;;;-1.20;99.90;;;;;;5055716;28;20071;-64
2023/03/11 07:36:15;;;;;;;4.63;1.20;;;-1.10;99.90;;;;;;5036823;28;20483;-64
2023/03/11 07:38:42;;;;;;;7.25;1.38;;;-1.10;99.90;;;;;;5031271;28;20052;-65
2023/03/11 07:41:10;;;;;;;4.22;1.17;;;-0.90;99.90;;;;;;5040185;28;20116;-64
2023/03/11 07:43:35;;;;;;;4.10;1.10;;;-0.90;99.90;;;;;;5040092;28;20391;-64
2023/03/11 07:46:10;;;;;;;5.85;1.20;;;-0.80;99.90;;;;;;5043139;28;20115;-64
2023/03/11 07:48:37;;;;;;;4.40;1.60;;;-0.80;99.90;;;;;;5039470;28;20056;-64
2023/03/11 07:51:12;;;;;;;4.93;1.48;;;-0.70;99.90;;;;;;5034267;28;20044;-64
2023/03/11 07:53:39;;;;;;;3.90;1.42;;;-0.60;99.90;;;;;;5036516;28;20049;-64
2023/03/11 07:56:05;;;;;;;4.32;1.23;;;-0.60;99.90;;;;;;5040306;28;20499;-63
2023/03/11 07:58:31;;;;;;;2.88;1.30;;;-0.50;99.90;;;;;;5034284;28;20499;-64
2023/03/11 08:01:06;;;;;;;6.50;1.25;;;-0.50;99.90;;;;;;5032208;28;20052;-63
2023/03/11 08:03:33;;;;;;;3.53;1.15;;;-0.40;99.90;;;;;;5041139;28;20056;-65
2023/03/11 08:05:58;;;;;;;4.00;1.27;;;-0.30;99.90;;;;;;5037219;28;20298;-63
2023/03/11 08:08:24;;;;;;;6.38;1.35;;;-0.30;99.90;;;;;;5039385;28;20045;-64
2023/03/11 08:10:50;;;;;;;3.25;1.30;;;-0.20;99.90;;;;;;5043728;28;20069;-64
2023/03/11 08:13:16;;;;;;;4.57;1.42;;;-0.10;99.90;;;;;;5037797;28;20542;-63
2023/03/11 08:15:41;;;;;;;4.95;1.48;;;-0.10;99.90;;;;;;5035564;28;20100;-63
2023/03/11 08:18:07;;;;;;;6.22;1.50;;;0.00;99.90;;;;;;5062523;28;20420;-62
2023/03/11 08:20:39;;;;;;;5.60;1.88;;;0.10;99.90;;;;;;5046490;28;20057;-62
2023/03/11 08:23:05;;;;;;;4.67;1.57;;;0.10;99.90;;;;;;5045877;28;20068;-66
2023/03/11 08:25:30;;;;;;;6.28;1.40;;;0.20;99.90;;;;;;5052092;28;20033;-66
2023/03/11 08:27:56;;;;;;;6.85;1.52;;;0.30;99.90;;;;;;5051841;28;20041;-66
2023/03/11 08:30:22;;;;;;;5.65;1.60;;;0.40;99.90;;;;;;5055744;28;20373;-66
2023/03/11 08:36:42;;;;;;;;;;;0.50;99.90;;;;;;5057216;28;20032;-66
2023/03/11 08:39:07;;;;;;;8.30;2.25;;;0.70;99.90;;;;;;5055533;28;19916;-66
2023/03/11 08:41:33;;;;;;;9.18;2.10;;;0.70;99.90;;;;;;5055389;28;20415;-66
2023/03/11 08:43:59;;;;;;;5.47;2.00;;;0.80;99.90;;;;;;5055434;28;20037;-66
2023/03/11 08:46:34;;;;;;;12.10;2.47;;;0.80;99.90;;;;;;5039651;28;20036;-67
2023/03/11 08:49:00;;;;;;;4.57;1.67;;;1.00;99.90;;;;;;5055413;28;20059;-67
2023/03/11 08:51:26;;;;;;;3.78;1.70;;;1.00;99.90;;;;;;5055323;28;20551;-67
2023/03/11 08:57:32;;;;;;;8.70;2.40;;;1.20;99.90;;;;;;5056537;28;20063;-68
2023/03/11 08:59:58;;;;;;;4.18;1.63;;;1.30;99.90;;;;;;5038723;28;20492;-68
2023/03/11 09:06:21;;;;;;;5.82;1.85;;;1.40;99.90;;;;;;5055953;28;20093;-68
2023/03/11 09:08:47;;;;;;;5.03;1.90;;;1.50;99.90;;;;;;5043837;28;20472;-68
2023/03/11 09:11:15;;;;;;;6.60;2.15;;;1.60;99.90;;;;;;5034127;28;20049;-68
2023/03/11 09:13:42;;;;;;;3.88;1.70;;;1.60;99.90;;;;;;5049945;28;20088;-67
2023/03/11 09:16:16;;;;;;;6.93;2.25;;;1.70;99.90;;;;;;5053222;28;20124;-68
2023/03/11 09:18:41;;;;;;;6.80;1.80;;;1.70;99.90;;;;;;5068257;28;20041;-68
2023/03/11 09:21:08;;;;;;;5.97;1.67;;;1.70;99.90;;;;;;5047269;28;20040;-69
2023/03/11 09:23:33;;;;;;;6.00;1.70;;;1.80;99.90;;;;;;5055236;28;20049;-69
2023/03/11 09:25:59;;;;;;;10.07;2.00;;;1.90;99.90;;;;;;5037830;28;20044;-69
2023/03/11 09:28:24;;;;;;;5.13;2.20;;;1.90;99.90;;;;;;5026443;28;20033;-70
2023/03/11 09:30:50;;;;;;;6.63;2.60;;;2.00;99.90;;;;;;5040016;28;20366;-70
2023/03/11 09:33:15;;;;;;;8.32;2.60;;;2.00;99.90;;;;;;5039477;28;20114;-70
2023/03/11 09:35:41;;;;;;;9.52;2.80;;;2.10;99.90;;;;;;5048949;28;20088;-70
2023/03/11 09:38:06;;;;;;;5.53;1.90;;;2.10;99.90;;;;;;5048604;28;20037;-69
2023/03/11 09:40:47;;;;;;;7.32;1.70;;;2.20;99.90;;;;;;5020779;28;20038;-70
2023/03/11 09:43:24;;;;;;;8.45;1.70;;;2.30;99.90;;;;;;5046751;28;20032;-70
2023/03/11 09:46:02;;;;;;;9.07;1.60;;;2.40;99.90;;;;;;5050434;28;20033;-70
2023/03/11 09:48:43;;;;;;;6.47;1.30;;;2.50;99.90;;;;;;5041995;28;20046;-70
2023/03/11 09:51:19;;;;;;;6.15;1.67;;;2.60;99.90;;;;;;5044879;28;20067;-70
2023/03/11 09:53:52;;;;;;;3.85;1.50;;;2.70;99.90;;;;;;5040512;28;20472;-70
2023/03/11 09:56:21;;;;;;;6.70;1.63;;;2.70;99.90;;;;;;5053143;28;20040;-71
2023/03/11 09:59:00;;;;;;;5.03;1.50;;;2.80;99.90;;;;;;5056014;28;20037;-71
2023/03/11 10:01:36;;;;;;;5.15;1.90;;;2.90;99.90;;;;;;5045159;28;20077;-71
2023/03/11 10:04:13;;;;;;;10.40;1.70;;;2.90;99.90;;;;;;5045124;28;20403;-71
2023/03/11 10:06:40;;;;;;;8.18;1.73;;;3.00;99.90;;;;;;5049147;28;20045;-71
2023/03/11 10:09:38;;;;;;;7.90;1.90;;;3.00;99.90;;;;;;5026003;28;20041;-71
2023/03/11 10:12:20;;;;;;;6.72;2.40;;;3.10;99.90;;;;;;5055456;28;20049;-71
2023/03/11 10:15:23;;;;;;;10.23;2.40;;;3.20;99.90;;;;;;5032743;28;20040;-70
2023/03/11 10:18:08;;;;;;;8.40;2.33;;;3.30;99.90;;;;;;5040344;28;20049;-72
2023/03/11 10:20:52;;;;;;;10.25;2.17;;;3.50;99.90;;;;;;5046838;28;20061;-70
2023/03/11 10:23:36;;;;;;;4.55;1.60;;;3.50;99.90;;;;;;5037381;28;20283;-72
2023/03/11 10:26:21;;;;;;;5.22;1.40;;;3.60;99.90;;;;;;5041189;28;20037;-71
2023/03/11 10:28:58;;;;;;;11.38;1.52;;;3.70;99.90;;;;;;5052911;28;20044;-71
2023/03/11 10:31:31;;;;;;;10.10;1.38;;;3.70;99.90;;;;;;5048481;28;20092;-72
2023/03/11 10:34:20;;;;;;;10.68;1.58;;;3.80;99.90;;;;;;5036392;28;20512;-72
2023/03/11 10:37:05;;;;;;;6.70;1.15;;;3.90;99.90;;;;;;5031178;28;20091;-71
2023/03/11 10:39:33;;;;;;;4.93;1.38;;;3.90;99.90;;;;;;5024932;28;20127;-72
2023/03/11 10:42:02;;;;;;;7.18;1.50;;;4.00;99.90;;;;;;5039121;28;20128;-72
2023/03/11 10:44:34;;;;;;;5.78;1.42;;;4.00;99.90;;;;;;5048022;28;20032;-72
2023/03/11 10:47:01;;;;;;;9.52;1.92;;;4.00;99.90;;;;;;5031570;28;20044;-72
2023/03/11 10:49:27;;;;;;;6.63;1.55;;;4.10;99.90;;;;;;5032004;28;20052;-73
2023/03/11 10:51:54;;;;;;;6.30;1.50;;;4.10;99.90;;;;;;5045704;28;20036;-72
2023/03/11 10:54:32;;;;;;;10.75;1.48;;;4.20;99.90;;;;;;5044556;28;20068;-72
2023/03/11 10:57:17;;;;;;;4.60;1.30;;;4.20;99.90;;;;;;5041581;28;20064;-72
2023/03/11 10:59:47;;;;;;;2.90;1.10;;;4.30;99.90;;;;;;5032515;28;20056;-73
2023/03/11 11:02:24;;;;;;;5.20;1.48;;;4.30;99.90;;;;;;5049800;28;20045;-70
2023/03/11 11:05:16;;;;;;;4.78;1.40;;;4.40;99.90;;;;;;5037870;28;20098;-73
2023/03/11 11:07:43;;;;;;;6.93;1.30;;;4.40;99.90;;;;;;5034093;28;20091;-70
2023/03/11 11:10:12;;;;;;;4.07;1.50;;;4.50;99.90;;;;;;5031514;28;20084;-70
2023/03/11 11:12:56;;;;;;;8.65;1.40;;;4.60;99.90;;;;;;5035032;28;20776;-72
2023/03/11 11:15:23;;;;;;;4.65;1.20;;;4.70;99.90;;;;;;5041174;28;20428;-70
2023/03/11 11:17:49;;;;;;;4.20;0.90;;;4.80;99.90;;;;;;5038198;28;20040;-69
2023/03/11 11:20:18;;;;;;;7.05;1.25;;;4.80;99.90;;;;;;5039209;28;20179;-71
2023/03/11 11:23:03;;;;;;;4.47;1.20;;;4.90;99.90;;;;;;5035856;28;20110;-71
2023/03/11 11:25:37;;;;;;;7.25;1.20;;;4.90;99.90;;;;;;5035919;28;20131;-69
2023/03/11 11:28:19;;;;;;;7.53;1.15;;;4.90;99.90;;;;;;5054264;28;20113;-69
2023/03/11 11:31:05;;;;;;;6.40;1.33;;;4.90;99.90;;;;;;5033182;28;20046;-68
2023/03/11 11:33:37;;;;;;;8.93;1.40;;;5.00;99.90;;;;;;5035102;28;20084;-68
2023/03/11 11:36:04;;;;;;;6.25;1.45;;;5.10;99.90;;;;;;5035789;28;20047;-71
2023/03/11 11:38:31;;;;;;;4.60;0.80;;;5.20;99.90;;;;;;5036803;28;20056;-69
2023/03/11 11:41:01;;;;;;;5.30;1.00;;;5.20;99.90;;;;;;5039351;28;20387;-68
2023/03/11 11:43:39;;;;;;;4.50;0.75;;;5.00;99.90;;;;;;5039337;28;20051;-68
2023/03/11 11:46:14;;;;;;;3.83;0.60;;;5.10;99.90;;;;;;5059890;28;20065;-70
2023/03/11 11:48:46;;;;;;;4.10;1.00;;;5.20;99.90;;;;;;5037176;28;20037;-74
2023/03/11 11:51:20;;;;;;;6.37;0.80;;;5.20;99.90;;;;;;5037788;28;20037;-70
2023/03/11 11:53:58;;;;;;;4.75;0.88;;;5.20;99.90;;;;;;5038495;28;20080;-69
2023/03/11 11:56:25;;;;;;;6.57;0.80;;;5.30;99.90;;;;;;5054237;28;20048;-74
2023/03/11 11:58:53;;;;;;;3.83;0.73;;;5.30;99.90;;;;;;5037378;28;20033;-73
2023/03/11 12:01:22;;;;;;;1.85;0.60;;;5.30;99.90;;;;;;5044527;28;20070;-69
2023/03/11 12:04:13;;;;;;;4.55;0.68;;;5.40;99.90;;;;;;5036485;28;20052;-69
2023/03/11 12:06:45;;;;;;;2.22;0.80;;;5.40;99.90;;;;;;5041848;28;20382;-71
2023/03/11 12:09:25;;;;;;;4.68;1.05;;;5.40;99.90;;;;;;5047139;28;20404;-73
2023/03/11 12:11:59;;;;;;;5.28;0.70;;;5.60;99.90;;;;;;5044395;28;20498;-70
2023/03/11 12:14:33;;;;;;;5.60;1.05;;;5.60;99.90;;;;;;5042047;28;20044;-67
2023/03/11 12:17:01;;;;;;;5.90;1.20;;;5.60;99.90;;;;;;5043324;28;20059;-72
2023/03/11 12:20:00;;;;;;;7.70;0.88;;;5.60;99.90;;;;;;5065079;28;20147;-71
2023/03/11 12:22:57;;;;;;;3.72;0.80;;;5.50;99.90;;;;;;5021424;28;20425;-77
2023/03/11 12:25:32;;;;;;;5.07;1.00;;;5.40;99.90;;;;;;5047223;28;20043;-75
2023/03/11 12:28:02;;;;;;;4.28;0.73;;;5.60;99.90;;;;;;5032801;28;20041;-76
2023/03/11 12:30:37;;;;;;;5.78;0.68;;;5.60;99.90;;;;;;5050039;28;20048;-74
2023/03/11 12:33:08;;;;;;;2.58;0.80;;;5.70;99.90;;;;;;5039470;28;20071;-74
2023/03/11 12:35:34;;;;;;;5.47;0.82;;;5.70;99.90;;;;;;5045444;28;20185;-74
2023/03/11 12:38:11;;;;;;;4.03;0.80;;;5.90;99.90;;;;;;5041777;28;20098;-68
2023/03/11 12:40:54;;;;;;;2.20;0.68;;;5.90;99.90;;;;;;5042615;28;20076;-69
2023/03/11 12:43:32;;;;;;;8.10;0.90;;;6.10;99.90;;;;;;5043925;28;20033;-73
2023/03/11 12:46:05;;;;;;;4.15;0.60;;;6.30;99.90;;;;;;5044261;28;20053;-69
2023/03/11 12:49:10;;;;;;;2.85;0.80;;;6.30;99.90;;;;;;5046479;28;20498;-75
2023/03/11 12:51:38;;;;;;;2.17;0.70;;;6.30;99.90;;;;;;5045123;28;20132;-72
2023/03/11 12:54:28;;;;;;;3.85;0.82;;;6.00;99.90;;;;;;5048376;28;20037;-74
2023/03/11 12:57:00;;;;;;;9.48;1.10;;;6.00;99.90;;;;;;5052079;28;20045;-71
2023/03/11 12:59:59;;;;;;;4.38;0.90;;;6.10;99.90;;;;;;5051573;28;20040;-75
2023/03/11 13:02:24;;;;;;;8.98;1.25;;;6.00;99.90;;;;;;5052392;28;20049;-69
2023/03/11 13:04:56;;;;;;;3.83;0.95;;;6.20;99.90;;;;;;5044770;28;20525;-75
2023/03/11 13:07:24;;;;;;;5.13;0.85;;;6.20;99.90;;;;;;5052037;28;20041;-76
2023/03/11 13:10:02;;;;;;;5.72;1.42;;;6.10;99.90;;;;;;5045274;28;20048;-73
2023/03/11 13:12:41;;;;;;;6.78;1.40;;;6.10;99.90;;;;;;5043174;28;20029;-74
2023/03/11 13:15:19;;;;;;;2.30;0.95;;;6.20;99.90;;;;;;5043877;28;20063;-75